createdAt,value
2018-12-01T00:01:00.413Z,100.00
2018-12-01T00:03:31.539Z,100.00
2018-12-01T00:06:01.875Z,100.00
2018-12-01T00:08:31.601Z,100.00
2018-12-01T00:11:01.937Z,100.00
2018-12-01T00:13:31.339Z,100.00
2018-12-01T00:16:01.622Z,100.00
2018-12-01T00:18:30.714Z,100.00
2018-12-01T00:20:59.689Z,100.00
2018-12-01T00:23:28.813Z,100.00
2018-12-01T00:25:58.254Z,100.00
2018-12-01T00:28:27.841Z,100.00
2018-12-01T00:30:57.601Z,100.00
2018-12-01T00:33:26.048Z,100.00
2018-12-01T00:35:55.289Z,100.00
2018-12-01T00:38:24.526Z,100.00
2018-12-01T00:40:53.645Z,100.00
2018-12-01T00:43:23.274Z,100.00
2018-12-01T00:45:52.455Z,100.00
2018-12-01T00:48:21.833Z,100.00
2018-12-01T00:50:51.287Z,100.00
2018-12-01T00:53:20.505Z,100.00
2018-12-01T00:55:50.062Z,100.00
2018-12-01T00:58:18.705Z,100.00
2018-12-01T01:00:47.501Z,100.00
2018-12-01T01:03:16.381Z,100.00
2018-12-01T01:05:45.426Z,100.00
2018-12-01T01:08:14.123Z,100.00
2018-12-01T01:10:43.204Z,100.00
2018-12-01T01:13:12.800Z,100.00
2018-12-01T01:15:42.022Z,100.00
2018-12-01T01:18:11.037Z,100.00
2018-12-01T01:20:40.620Z,100.00
2018-12-01T01:23:10.056Z,100.00
2018-12-01T01:25:41.351Z,100.00
2018-12-01T01:28:11.284Z,100.00
2018-12-01T01:30:39.735Z,100.00
2018-12-01T01:33:19.313Z,100.00
2018-12-01T01:35:48.456Z,100.00
2018-12-01T01:38:17.976Z,100.00
2018-12-01T01:40:46.950Z,100.00
2018-12-01T01:43:16.221Z,100.00
2018-12-01T01:45:45.124Z,100.00
2018-12-01T01:48:14.302Z,100.00
2018-12-01T01:50:43.436Z,100.00
2018-12-01T01:53:12.331Z,100.00
2018-12-01T01:55:40.787Z,100.00
2018-12-01T01:58:10.490Z,100.00
2018-12-01T02:00:39.422Z,100.00
2018-12-01T02:03:08.787Z,100.00
2018-12-01T02:05:37.867Z,100.00
2018-12-01T02:08:06.512Z,100.00
2018-12-01T02:10:35.674Z,100.00
2018-12-01T02:13:04.120Z,100.00
2018-12-01T02:15:33.321Z,100.00
2018-12-01T02:18:02.049Z,100.00
2018-12-01T02:20:31.511Z,100.00
2018-12-01T02:23:02.461Z,100.00
2018-12-01T02:25:31.738Z,100.00
2018-12-01T02:28:00.617Z,100.00
2018-12-01T02:30:29.680Z,100.00
2018-12-01T02:32:58.884Z,100.00
2018-12-01T02:35:29.244Z,100.00
2018-12-01T02:37:57.918Z,100.00
2018-12-01T02:40:27.114Z,100.00
2018-12-01T02:42:56.478Z,100.00
2018-12-01T02:45:36.105Z,100.00
2018-12-01T02:48:05.418Z,100.00
2018-12-01T02:50:34.210Z,100.00
2018-12-01T02:53:03.270Z,100.00
2018-12-01T02:55:31.876Z,100.00
2018-12-01T02:58:01.845Z,100.00
2018-12-01T03:00:31.450Z,100.00
2018-12-01T03:03:00.621Z,100.00
2018-12-01T03:05:29.950Z,100.00
2018-12-01T03:07:58.990Z,100.00
2018-12-01T03:10:28.178Z,100.00
2018-12-01T03:12:57.082Z,100.00
2018-12-01T03:15:27.165Z,100.00
2018-12-01T03:17:56.220Z,100.00
2018-12-01T03:20:26.121Z,100.00
2018-12-01T03:22:55.504Z,100.00
2018-12-01T03:25:24.872Z,100.00
2018-12-01T03:27:54.800Z,100.00
2018-12-01T03:30:24.989Z,100.00
2018-12-01T03:32:55.020Z,100.00
2018-12-01T03:35:24.537Z,100.00
2018-12-01T03:37:53.955Z,100.00
2018-12-01T03:40:23.226Z,100.00
2018-12-01T03:42:53.223Z,100.00
2018-12-01T03:45:23.037Z,100.00
2018-12-01T03:47:51.746Z,100.00
2018-12-01T03:50:23.773Z,100.00
2018-12-01T03:52:55.542Z,100.00
2018-12-01T03:55:27.706Z,100.00
2018-12-01T03:57:57.222Z,100.00
2018-12-01T04:00:28.347Z,100.00
2018-12-01T04:02:58.515Z,100.00
2018-12-01T04:05:27.447Z,100.00
2018-12-01T04:07:56.138Z,100.00
2018-12-01T04:10:25.314Z,100.00
2018-12-01T04:12:54.759Z,100.00
2018-12-01T04:15:23.860Z,100.00
2018-12-01T04:17:52.533Z,100.00
2018-12-01T04:20:21.375Z,100.00
2018-12-01T04:22:50.754Z,100.00
2018-12-01T04:25:19.256Z,100.00
2018-12-01T04:27:49.062Z,100.00
2018-12-01T04:30:19.845Z,100.00
2018-12-01T04:32:49.807Z,100.00
2018-12-01T04:35:22.239Z,100.00
2018-12-01T04:37:56.600Z,100.00
2018-12-01T04:40:26.179Z,100.00
2018-12-01T04:42:55.409Z,100.00
2018-12-01T04:45:24.247Z,100.00
2018-12-01T04:47:53.233Z,100.00
2018-12-01T04:50:21.928Z,100.00
2018-12-01T04:52:51.163Z,100.00
2018-12-01T04:55:20.560Z,100.00
2018-12-01T04:57:49.632Z,100.00
2018-12-01T05:00:20.115Z,100.00
2018-12-01T05:02:49.716Z,100.00
2018-12-01T05:05:20.275Z,100.00
2018-12-01T05:07:48.857Z,100.00
2018-12-01T05:10:18.072Z,100.00
2018-12-01T05:12:47.143Z,100.00
2018-12-01T05:15:16.382Z,100.00
2018-12-01T05:17:45.145Z,100.00
2018-12-01T05:20:17.044Z,100.00
2018-12-01T05:22:46.919Z,100.00
2018-12-01T05:25:17.182Z,100.00
2018-12-01T05:27:46.221Z,100.00
2018-12-01T05:30:14.698Z,100.00
2018-12-01T05:35:36.695Z,100.00
2018-12-01T05:38:05.783Z,100.00
2018-12-01T05:40:34.631Z,100.00
2018-12-01T05:43:03.853Z,100.00
2018-12-01T05:45:33.269Z,100.00
2018-12-01T05:48:02.853Z,100.00
2018-12-01T05:50:32.164Z,100.00
2018-12-01T05:53:02.122Z,100.00
2018-12-01T05:55:31.084Z,100.00
2018-12-01T05:57:59.524Z,100.00
2018-12-01T06:00:28.817Z,100.00
2018-12-01T06:02:58.056Z,100.00
2018-12-01T06:05:27.088Z,100.00
2018-12-01T06:07:55.982Z,100.00
2018-12-01T06:10:25.377Z,100.00
2018-12-01T06:12:54.107Z,100.00
2018-12-01T06:15:23.000Z,100.00
2018-12-01T06:17:52.510Z,100.00
2018-12-01T06:20:22.543Z,100.00
2018-12-01T06:22:51.895Z,100.00
2018-12-01T06:25:21.796Z,100.00
2018-12-01T06:27:51.960Z,100.00
2018-12-01T06:30:21.210Z,100.00
2018-12-01T06:32:50.946Z,100.00
2018-12-01T06:35:19.757Z,100.00
2018-12-01T06:37:48.439Z,100.00
2018-12-01T06:40:19.177Z,100.00
2018-12-01T06:42:47.716Z,100.00
2018-12-01T06:45:17.827Z,100.00
2018-12-01T06:47:46.667Z,100.00
2018-12-01T06:50:18.200Z,100.00
2018-12-01T06:52:47.619Z,100.00
2018-12-01T06:55:16.385Z,100.00
2018-12-01T06:57:46.478Z,100.00
2018-12-01T07:00:17.206Z,100.00
2018-12-01T07:02:46.399Z,100.00
2018-12-01T07:05:16.100Z,100.00
2018-12-01T07:08:19.359Z,100.00
2018-12-01T07:10:49.965Z,100.00
2018-12-01T07:13:41.453Z,100.00
2018-12-01T07:16:43.727Z,100.00
2018-12-01T07:19:42.443Z,100.00
2018-12-01T07:22:13.335Z,100.00
2018-12-01T07:24:44.424Z,100.00
2018-12-01T07:27:13.642Z,100.00
2018-12-01T07:29:43.141Z,100.00
2018-12-01T07:32:12.118Z,100.00
2018-12-01T07:35:10.947Z,100.00
2018-12-01T07:38:05.769Z,100.00
2018-12-01T07:41:00.238Z,100.00
2018-12-01T07:43:45.114Z,100.00
2018-12-01T07:46:46.215Z,100.00
2018-12-01T07:49:43.327Z,100.00
2018-12-01T07:52:13.619Z,100.00
2018-12-01T07:55:07.711Z,100.00
2018-12-01T07:58:04.758Z,100.00
2018-12-01T08:01:04.459Z,100.00
2018-12-01T08:03:45.755Z,100.00
2018-12-01T08:06:14.509Z,100.00
2018-12-01T08:09:16.672Z,100.00
2018-12-01T08:11:46.392Z,100.00
2018-12-01T08:15:17.079Z,100.00
2018-12-01T08:17:47.763Z,100.00
2018-12-01T08:20:17.745Z,100.00
2018-12-01T08:22:48.795Z,100.00
2018-12-01T08:25:21.391Z,100.00
2018-12-01T08:27:53.071Z,100.00
2018-12-01T08:30:24.320Z,100.00
2018-12-01T08:32:54.105Z,100.00
2018-12-01T08:35:26.144Z,100.00
2018-12-01T08:37:55.670Z,100.00
2018-12-01T08:40:29.959Z,100.00
2018-12-01T08:42:59.919Z,100.00
2018-12-01T08:45:30.383Z,100.00
2018-12-01T08:48:24.528Z,100.00
2018-12-01T08:51:23.665Z,100.00
2018-12-01T08:54:23.947Z,100.00
2018-12-01T08:57:18.808Z,100.00
2018-12-01T09:00:13.498Z,100.00
2018-12-01T09:02:43.143Z,100.00
2018-12-01T09:05:11.601Z,100.00
2018-12-01T09:07:42.805Z,100.00
2018-12-01T09:10:16.904Z,100.00
2018-12-01T09:12:46.502Z,100.00
2018-12-01T09:15:15.655Z,100.00
2018-12-01T09:17:45.390Z,100.00
2018-12-01T09:20:15.215Z,100.00
2018-12-01T09:22:46.859Z,100.00
2018-12-01T09:25:36.057Z,100.00
2018-12-01T09:28:18.001Z,100.00
2018-12-01T09:30:48.682Z,100.00
2018-12-01T09:33:18.886Z,100.00
2018-12-01T09:36:11.958Z,100.00
2018-12-01T09:39:08.087Z,100.00
2018-12-01T09:42:01.634Z,100.00
2018-12-01T09:44:34.124Z,100.00
2018-12-01T09:47:32.632Z,100.00
2018-12-01T09:50:28.853Z,100.00
2018-12-01T09:53:14.867Z,100.00
2018-12-01T09:56:06.437Z,100.00
2018-12-01T09:58:36.035Z,100.00
2018-12-01T10:01:06.165Z,100.00
2018-12-01T10:03:36.226Z,100.00
2018-12-01T10:06:05.723Z,100.00
2018-12-01T10:08:35.557Z,100.00
2018-12-01T10:11:06.279Z,100.00
2018-12-01T10:13:36.806Z,100.00
2018-12-01T10:16:07.133Z,100.00
2018-12-01T10:18:37.532Z,100.00
2018-12-01T10:21:07.379Z,100.00
2018-12-01T10:23:37.756Z,100.00
2018-12-01T10:26:09.231Z,100.00
2018-12-01T10:28:40.090Z,100.00
2018-12-01T10:31:09.667Z,100.00
2018-12-01T10:33:39.439Z,100.00
2018-12-01T10:36:09.917Z,100.00
2018-12-01T10:38:39.675Z,100.00
2018-12-01T10:41:39.479Z,100.00
2018-12-01T10:44:12.837Z,100.00
2018-12-01T10:47:05.674Z,100.00
2018-12-01T10:49:43.640Z,100.00
2018-12-01T10:52:13.831Z,100.00
2018-12-01T10:54:46.444Z,100.00
2018-12-01T10:57:15.788Z,100.00
2018-12-01T10:59:44.947Z,100.00
2018-12-01T11:02:18.551Z,100.00
2018-12-01T11:04:47.845Z,100.00
2018-12-01T11:07:17.314Z,100.00
2018-12-01T11:09:46.182Z,100.00
2018-12-01T11:12:15.301Z,100.00
2018-12-01T11:14:44.698Z,100.00
2018-12-01T11:17:14.074Z,100.00
2018-12-01T11:19:43.120Z,100.00
2018-12-01T11:22:13.229Z,100.00
2018-12-01T11:24:42.768Z,100.00
2018-12-01T11:27:12.108Z,100.00
2018-12-01T11:29:43.643Z,100.00
2018-12-01T11:32:14.977Z,100.00
2018-12-01T11:34:45.779Z,100.00
2018-12-01T11:37:15.307Z,100.00
2018-12-01T11:39:45.707Z,100.00
2018-12-01T11:42:15.518Z,100.00
2018-12-01T11:44:45.276Z,100.00
2018-12-01T11:47:15.571Z,100.00
2018-12-01T11:49:45.804Z,100.00
2018-12-01T11:52:16.544Z,100.00
2018-12-01T11:54:46.409Z,100.00
2018-12-01T11:57:15.954Z,100.00
2018-12-01T11:59:45.296Z,100.00
2018-12-01T12:02:14.982Z,100.00
2018-12-01T12:04:43.456Z,100.00
2018-12-01T12:07:23.235Z,100.00
2018-12-01T12:09:52.277Z,100.00
2018-12-01T12:12:20.888Z,100.00
2018-12-01T12:14:52.060Z,100.00
2018-12-01T12:17:19.625Z,100.00
2018-12-01T12:19:48.297Z,100.00
2018-12-01T12:22:17.798Z,100.00
2018-12-01T12:24:47.194Z,100.00
2018-12-01T12:27:16.588Z,100.00
2018-12-01T12:29:45.626Z,100.00
2018-12-01T12:32:14.992Z,100.00
2018-12-01T12:34:44.558Z,100.00
2018-12-01T12:37:13.744Z,100.00
2018-12-01T12:39:43.366Z,100.00
2018-12-01T12:42:13.512Z,100.00
2018-12-01T12:44:43.202Z,100.00
2018-12-01T12:47:13.492Z,100.00
2018-12-01T12:49:43.853Z,100.00
2018-12-01T12:52:14.800Z,100.00
2018-12-01T12:54:44.629Z,100.00
2018-12-01T12:57:14.422Z,100.00
2018-12-01T12:59:43.870Z,100.00
2018-12-01T13:02:12.438Z,100.00
2018-12-01T13:04:41.042Z,100.00
2018-12-01T13:07:09.948Z,100.00
2018-12-01T13:09:38.962Z,100.00
2018-12-01T13:12:07.394Z,97.54
2018-12-01T13:14:35.773Z,92.30
2018-12-01T13:17:04.384Z,93.58
2018-12-01T13:19:33.472Z,90.54
2018-12-01T13:22:01.910Z,91.84
2018-12-01T13:24:30.321Z,87.94
2018-12-01T13:26:59.236Z,89.60
2018-12-01T13:29:28.675Z,88.23
2018-12-01T13:31:57.865Z,86.37
2018-12-01T13:34:27.098Z,85.03
2018-12-01T13:36:56.202Z,85.02
2018-12-01T13:39:25.820Z,87.21
2018-12-01T13:41:55.640Z,92.71
2018-12-01T13:44:25.912Z,94.51
2018-12-01T13:46:55.713Z,98.41
2018-12-01T13:49:25.727Z,100.00
2018-12-01T13:51:55.862Z,100.00
2018-12-01T13:54:26.470Z,100.00
2018-12-01T13:56:56.011Z,100.00
2018-12-01T13:59:26.013Z,100.00
2018-12-01T14:01:56.930Z,100.00
2018-12-01T14:04:27.432Z,100.00
2018-12-01T14:06:58.713Z,100.00
2018-12-01T14:09:49.609Z,100.00
2018-12-01T14:12:34.250Z,100.00
2018-12-01T14:15:14.910Z,100.00
2018-12-01T14:17:44.610Z,100.00
2018-12-01T14:20:15.893Z,100.00
2018-12-01T14:22:46.567Z,100.00
2018-12-01T14:25:17.189Z,100.00
2018-12-01T14:27:47.439Z,100.00
2018-12-01T14:30:16.589Z,100.00
2018-12-01T14:32:45.806Z,100.00
2018-12-01T14:35:21.303Z,100.00
2018-12-01T14:37:51.317Z,100.00
2018-12-01T14:40:20.586Z,100.00
2018-12-01T14:42:49.748Z,100.00
2018-12-01T14:45:18.949Z,100.00
2018-12-01T14:47:47.479Z,100.00
2018-12-01T14:50:16.624Z,100.00
2018-12-01T14:52:45.970Z,100.00
2018-12-01T14:55:16.445Z,100.00
2018-12-01T14:57:46.163Z,100.00
2018-12-01T15:00:16.689Z,100.00
2018-12-01T15:02:54.196Z,100.00
2018-12-01T15:05:22.839Z,100.00
2018-12-01T15:07:51.596Z,100.00
2018-12-01T15:10:22.614Z,100.00
2018-12-01T15:12:51.714Z,100.00
2018-12-01T15:15:22.759Z,100.00
2018-12-01T15:17:51.201Z,100.00
2018-12-01T15:20:21.482Z,100.00
2018-12-01T15:22:52.381Z,100.00
2018-12-01T15:25:22.589Z,100.00
2018-12-01T15:27:51.065Z,100.00
2018-12-01T15:30:22.770Z,100.00
2018-12-01T15:32:58.838Z,100.00
2018-12-01T15:35:27.911Z,100.00
2018-12-01T15:37:56.645Z,100.00
2018-12-01T15:40:25.643Z,100.00
2018-12-01T15:42:54.282Z,100.00
2018-12-01T15:45:23.185Z,100.00
2018-12-01T15:47:52.484Z,100.00
2018-12-01T15:50:21.948Z,100.00
2018-12-01T15:52:52.938Z,100.00
2018-12-01T15:55:24.235Z,100.00
2018-12-01T15:57:53.425Z,100.00
2018-12-01T16:00:23.562Z,100.00
2018-12-01T16:02:52.855Z,100.00
2018-12-01T16:05:22.330Z,100.00
2018-12-01T16:07:52.950Z,100.00
2018-12-01T16:10:22.441Z,100.00
2018-12-01T16:12:54.281Z,100.00
2018-12-01T16:15:25.403Z,100.00
2018-12-01T16:17:54.568Z,100.00
2018-12-01T16:20:23.817Z,100.00
2018-12-01T16:22:53.364Z,100.00
2018-12-01T16:25:25.324Z,100.00
2018-12-01T16:27:54.113Z,100.00
2018-12-01T16:30:25.506Z,100.00
2018-12-01T16:32:55.632Z,100.00
2018-12-01T16:35:24.144Z,100.00
2018-12-01T16:37:54.574Z,100.00
2018-12-01T16:40:28.011Z,100.00
2018-12-01T16:42:57.539Z,100.00
2018-12-01T16:45:26.904Z,100.00
2018-12-01T16:47:55.636Z,100.00
2018-12-01T16:50:24.264Z,100.00
2018-12-01T16:52:53.101Z,100.00
2018-12-01T16:55:21.607Z,100.00
2018-12-01T16:57:50.027Z,100.00
2018-12-01T17:00:19.807Z,100.00
2018-12-01T17:02:54.651Z,100.00
2018-12-01T17:05:24.577Z,100.00
2018-12-01T17:07:53.726Z,100.00
2018-12-01T17:10:22.849Z,100.00
2018-12-01T17:12:52.817Z,100.00
2018-12-01T17:15:22.676Z,100.00
2018-12-01T17:17:51.327Z,100.00
2018-12-01T17:20:20.280Z,100.00
2018-12-01T17:22:57.918Z,100.00
2018-12-01T17:25:27.775Z,100.00
2018-12-01T17:27:57.645Z,100.00
2018-12-01T17:30:27.123Z,100.00
2018-12-01T17:32:56.193Z,100.00
2018-12-01T17:35:29.647Z,100.00
2018-12-01T17:38:02.654Z,100.00
2018-12-01T17:43:19.643Z,100.00
2018-12-01T17:45:49.626Z,100.00
2018-12-01T17:48:18.940Z,100.00
2018-12-01T17:50:48.164Z,100.00
2018-12-01T17:53:16.942Z,100.00
2018-12-01T17:55:45.944Z,100.00
2018-12-01T17:58:15.110Z,100.00
2018-12-01T18:00:44.062Z,100.00
2018-12-01T18:03:12.772Z,100.00
2018-12-01T18:05:43.738Z,100.00
2018-12-01T18:08:17.959Z,100.00
2018-12-01T18:10:47.955Z,100.00
2018-12-01T18:13:17.257Z,100.00
2018-12-01T18:15:46.356Z,100.00
2018-12-01T18:18:15.502Z,100.00
2018-12-01T18:20:44.244Z,100.00
2018-12-01T18:23:18.175Z,100.00
2018-12-01T18:25:51.184Z,100.00
2018-12-01T18:28:51.884Z,100.00
2018-12-01T18:31:23.419Z,100.00
2018-12-01T18:34:01.349Z,100.00
2018-12-01T18:36:30.581Z,100.00
2018-12-01T18:38:59.799Z,100.00
2018-12-01T18:41:28.613Z,100.00
2018-12-01T18:43:57.626Z,100.00
2018-12-01T18:46:26.129Z,100.00
2018-12-01T18:48:55.744Z,100.00
2018-12-01T18:51:24.651Z,100.00
2018-12-01T18:53:53.258Z,100.00
2018-12-01T18:56:41.805Z,100.00
2018-12-01T18:59:11.094Z,100.00
2018-12-01T19:02:14.351Z,100.00
2018-12-01T19:04:44.483Z,100.00
2018-12-01T19:07:13.896Z,100.00
2018-12-01T19:09:42.850Z,100.00
2018-12-01T19:12:12.457Z,100.00
2018-12-01T19:14:40.930Z,100.00
2018-12-01T19:17:09.697Z,100.00
2018-12-01T19:19:38.118Z,100.00
2018-12-01T19:22:07.761Z,100.00
2018-12-01T19:24:36.234Z,100.00
2018-12-01T19:27:05.451Z,100.00
2018-12-01T19:29:34.014Z,100.00
2018-12-01T19:32:02.907Z,100.00
2018-12-01T19:34:33.395Z,100.00
2018-12-01T19:37:02.505Z,100.00
2018-12-01T19:39:32.743Z,100.00
2018-12-01T19:42:02.809Z,100.00
2018-12-01T19:44:31.968Z,100.00
2018-12-01T19:47:00.937Z,100.00
2018-12-01T19:49:30.426Z,100.00
2018-12-01T19:51:59.806Z,100.00
2018-12-01T19:54:28.354Z,100.00
2018-12-01T19:56:57.829Z,100.00
2018-12-01T19:59:26.207Z,100.00
2018-12-01T20:01:56.024Z,100.00
2018-12-01T20:04:24.786Z,100.00
2018-12-01T20:06:53.434Z,100.00
2018-12-01T20:09:23.383Z,100.00
2018-12-01T20:11:52.493Z,100.00
2018-12-01T20:14:21.302Z,100.00
2018-12-01T20:16:54.320Z,100.00
2018-12-01T20:19:23.366Z,100.00
2018-12-01T20:21:52.056Z,100.00
2018-12-01T20:24:21.121Z,100.00
2018-12-01T20:26:50.161Z,100.00
2018-12-01T20:29:18.839Z,100.00
2018-12-01T20:31:48.220Z,100.00
2018-12-01T20:34:17.353Z,100.00
2018-12-01T20:36:52.279Z,100.00
2018-12-01T20:39:23.622Z,100.00
2018-12-01T20:41:52.613Z,100.00
2018-12-01T20:44:21.176Z,100.00
2018-12-01T20:46:49.601Z,100.00
2018-12-01T20:49:18.877Z,100.00
2018-12-01T20:51:47.302Z,100.00
2018-12-01T20:54:31.675Z,100.00
2018-12-01T20:57:07.462Z,100.00
2018-12-01T20:59:36.965Z,100.00
2018-12-01T21:02:05.657Z,100.00
2018-12-01T21:04:34.366Z,100.00
2018-12-01T21:07:03.329Z,100.00
2018-12-01T21:09:32.479Z,100.00
2018-12-01T21:12:01.399Z,100.00
2018-12-01T21:14:29.837Z,100.00
2018-12-01T21:16:59.303Z,100.00
2018-12-01T21:19:28.670Z,100.00
2018-12-01T21:21:58.002Z,100.00
2018-12-01T21:24:27.600Z,100.00
2018-12-01T21:26:56.270Z,100.00
2018-12-01T21:29:25.256Z,100.00
2018-12-01T21:31:54.215Z,100.00
2018-12-01T21:34:23.781Z,100.00
2018-12-01T21:36:53.215Z,100.00
2018-12-01T21:39:22.360Z,100.00
2018-12-01T21:41:51.311Z,100.00
2018-12-01T21:44:20.624Z,100.00
2018-12-01T21:46:50.123Z,100.00
2018-12-01T21:49:19.450Z,100.00
2018-12-01T21:51:48.283Z,100.00
2018-12-01T21:54:16.729Z,100.00
2018-12-01T21:56:45.640Z,100.00
2018-12-01T21:59:14.473Z,100.00
2018-12-01T22:01:43.857Z,100.00
2018-12-01T22:04:12.578Z,100.00
2018-12-01T22:06:42.110Z,100.00
2018-12-01T22:09:11.019Z,100.00
2018-12-01T22:11:40.397Z,100.00
2018-12-01T22:14:09.042Z,100.00
2018-12-01T22:16:38.346Z,100.00
2018-12-01T22:19:07.342Z,100.00
2018-12-01T22:21:36.060Z,100.00
2018-12-01T22:24:04.712Z,100.00
2018-12-01T22:26:34.102Z,100.00
2018-12-01T22:29:03.004Z,100.00
2018-12-01T22:31:32.538Z,100.00
2018-12-01T22:34:02.100Z,100.00
2018-12-01T22:36:30.785Z,100.00
2018-12-01T22:38:59.355Z,100.00
2018-12-01T22:41:28.670Z,100.00
2018-12-01T22:43:57.420Z,100.00
2018-12-01T22:46:25.862Z,100.00
2018-12-01T22:48:54.594Z,100.00
2018-12-01T22:51:23.469Z,100.00
2018-12-01T22:53:53.319Z,100.00
2018-12-01T22:56:21.982Z,100.00
2018-12-01T22:58:51.089Z,100.00
2018-12-01T23:01:20.234Z,100.00
2018-12-01T23:03:49.800Z,100.00
2018-12-01T23:06:18.601Z,100.00
2018-12-01T23:08:47.664Z,100.00
2018-12-01T23:11:19.430Z,100.00
2018-12-01T23:13:48.582Z,100.00
2018-12-01T23:16:18.032Z,100.00
2018-12-01T23:18:47.034Z,100.00
2018-12-01T23:21:20.487Z,100.00
2018-12-01T23:23:44.985Z,100.00
2018-12-01T23:26:14.018Z,100.00
2018-12-01T23:28:42.757Z,100.00
2018-12-01T23:31:11.423Z,100.00
2018-12-01T23:33:40.039Z,100.00
2018-12-01T23:36:08.776Z,100.00
2018-12-01T23:38:37.529Z,100.00
2018-12-01T23:41:06.586Z,100.00
2018-12-01T23:43:35.520Z,100.00
2018-12-01T23:46:04.384Z,100.00
2018-12-01T23:48:32.849Z,100.00
2018-12-01T23:51:01.489Z,100.00
2018-12-01T23:53:31.165Z,100.00
2018-12-01T23:55:59.974Z,100.00
2018-12-01T23:58:28.342Z,100.00
